Terminal Aerodrome Forecast
Issued by NWS

Home | Current Version | Previous Version | Text Only | Print | Product List | Glossary On
Versions: 1 2 3 4 5 6 7 8 9 10 11 12 13 14 15 16
725
FTUS45 KABQ 210921 AAD
TAFSAF
TAF AMD
KSAF 210921Z 2109/2206 14009KT 6SM -SN OVC035
     FM211100 24015G25KT P6SM VCSH BKN035
      TEMPO 2111/2114 2SM -SN OVC015
     FM211700 28025G35KT P6SM BKN030
     FM220100 31015KT P6SM BKN100=

USA.gov is the U.S. government's official web portal to all federal, state and local government web resources and services.